createdAt,value
2024-02-03T00:00:34.153Z,6.90
2024-02-03T00:03:01.011Z,9.95
2024-02-03T00:05:28.551Z,7.05
2024-02-03T00:07:55.323Z,6.13
2024-02-03T00:10:22.216Z,6.30
2024-02-03T00:12:49.493Z,7.38
2024-02-03T00:15:17.218Z,4.03
2024-02-03T00:17:44.232Z,4.88
2024-02-03T00:20:11.987Z,5.32
2024-02-03T00:22:39.166Z,5.93
2024-02-03T00:25:06.380Z,11.57
2024-02-03T00:27:33.152Z,4.68
2024-02-03T00:30:00.090Z,9.10
2024-02-03T00:32:27.122Z,4.60
2024-02-03T00:34:54.376Z,7.78
2024-02-03T00:37:21.903Z,5.63
2024-02-03T00:39:48.856Z,4.50
2024-02-03T00:42:15.770Z,5.35
2024-02-03T00:44:42.770Z,6.68
2024-02-03T00:47:09.574Z,9.13
2024-02-03T00:49:36.686Z,10.30
2024-02-03T00:52:03.846Z,5.88
2024-02-03T00:54:30.693Z,6.22
2024-02-03T00:56:58.248Z,5.45
2024-02-03T00:59:25.268Z,4.65
2024-02-03T01:01:52.466Z,6.00
2024-02-03T01:04:19.763Z,4.47
2024-02-03T01:06:46.695Z,5.55
2024-02-03T01:09:18.212Z,5.05
2024-02-03T01:11:45.172Z,4.32
2024-02-03T01:14:12.265Z,5.80
2024-02-03T01:16:39.475Z,6.57
2024-02-03T01:19:06.510Z,4.57
2024-02-03T01:21:33.467Z,4.97
2024-02-03T01:24:00.350Z,4.93
2024-02-03T01:26:27.202Z,6.68
2024-02-03T01:28:54.252Z,6.20
2024-02-03T01:31:21.145Z,3.65
2024-02-03T01:33:48.673Z,4.43
2024-02-03T01:36:15.614Z,4.28
2024-02-03T01:38:45.306Z,6.82
2024-02-03T01:41:12.104Z,19.98
2024-02-03T01:43:38.987Z,5.75
2024-02-03T01:46:05.845Z,5.68
2024-02-03T01:48:34.526Z,3.78
2024-02-03T01:51:01.516Z,5.55
2024-02-03T01:53:28.354Z,6.85
2024-02-03T01:55:55.103Z,6.65
2024-02-03T01:58:22.004Z,2.80
2024-02-03T02:00:48.994Z,3.65
2024-02-03T02:03:16.149Z,4.13
2024-02-03T02:05:43.619Z,7.97
2024-02-03T02:08:10.820Z,4.30
2024-02-03T02:10:39.980Z,4.43
2024-02-03T02:13:06.915Z,4.25
2024-02-03T02:15:34.018Z,5.20
2024-02-03T02:18:01.342Z,5.97
2024-02-03T02:20:28.397Z,6.50
2024-02-03T02:22:55.315Z,4.18
2024-02-03T02:25:22.261Z,6.10
2024-02-03T02:27:51.802Z,3.95
2024-02-03T02:30:20.697Z,4.47
2024-02-03T02:32:47.642Z,5.18
2024-02-03T02:35:14.591Z,6.38
2024-02-03T02:37:41.574Z,10.02
2024-02-03T02:40:10.050Z,12.77
2024-02-03T02:42:37.277Z,8.23
2024-02-03T02:45:04.629Z,3.22
2024-02-03T02:47:31.933Z,4.22
2024-02-03T02:49:59.083Z,3.30
2024-02-03T02:52:26.080Z,2.78
2024-02-03T02:54:53.381Z,3.65
2024-02-03T02:57:20.338Z,3.60
2024-02-03T02:59:47.161Z,7.40
2024-02-03T03:02:14.055Z,3.63
2024-02-03T03:04:40.995Z,8.70
2024-02-03T03:07:07.794Z,6.72
2024-02-03T03:09:34.662Z,36.88
2024-02-03T03:12:01.535Z,5.53
2024-02-03T03:14:28.379Z,7.35
2024-02-03T03:16:55.584Z,4.68
2024-02-03T03:19:22.452Z,8.43
2024-02-03T03:21:49.499Z,6.80
2024-02-03T03:24:16.336Z,10.55
2024-02-03T03:26:43.982Z,3.15
2024-02-03T03:29:16.198Z,7.22
2024-02-03T03:31:43.890Z,5.97
2024-02-03T03:34:11.265Z,3.53
2024-02-03T03:36:38.621Z,4.93
2024-02-03T03:39:05.713Z,2.70
2024-02-03T03:41:32.565Z,4.72
2024-02-03T03:43:59.305Z,4.07
2024-02-03T03:46:26.166Z,3.63
2024-02-03T03:48:53.246Z,3.33
2024-02-03T03:51:20.944Z,4.22
2024-02-03T03:53:47.762Z,3.00
2024-02-03T03:56:14.540Z,3.72
2024-02-03T03:58:41.458Z,4.95
2024-02-03T04:01:11.694Z,3.80
2024-02-03T04:03:38.666Z,3.47
2024-02-03T04:06:05.716Z,7.22
2024-02-03T04:08:32.592Z,5.75
2024-02-03T04:10:59.644Z,3.35
2024-02-03T04:13:26.958Z,5.40
2024-02-03T04:15:54.726Z,2.85
2024-02-03T04:18:21.807Z,3.05
2024-02-03T04:20:48.761Z,4.38
2024-02-03T04:23:15.608Z,2.97
2024-02-03T04:25:42.514Z,4.45
2024-02-03T04:28:09.363Z,12.23
2024-02-03T04:30:36.166Z,17.48
2024-02-03T04:33:03.260Z,6.15
2024-02-03T04:35:32.330Z,4.22
2024-02-03T04:38:03.991Z,2.63
2024-02-03T04:40:31.137Z,3.85
2024-02-03T04:42:57.975Z,3.95
2024-02-03T04:45:24.945Z,11.45
2024-02-03T04:47:51.997Z,7.28
2024-02-03T04:50:18.995Z,6.28
2024-02-03T04:52:45.943Z,5.72
2024-02-03T04:55:12.745Z,8.90
2024-02-03T04:57:39.695Z,9.13
2024-02-03T05:00:07.602Z,8.52
2024-02-03T05:02:34.417Z,13.10
2024-02-03T05:05:01.365Z,10.15
2024-02-03T05:07:28.196Z,13.77
2024-02-03T05:09:55.112Z,14.43
2024-02-03T05:12:22.020Z,8.48
2024-02-03T05:14:48.826Z,9.55
2024-02-03T05:17:15.680Z,10.60
2024-02-03T05:19:42.734Z,16.05
2024-02-03T05:22:09.636Z,9.85
2024-02-03T05:24:36.609Z,9.60
2024-02-03T05:27:03.565Z,11.20
2024-02-03T05:29:30.369Z,19.55
2024-02-03T05:31:57.261Z,18.75
2024-02-03T05:34:24.109Z,17.73
2024-02-03T05:36:51.092Z,15.05
2024-02-03T05:39:18.512Z,9.05
2024-02-03T05:41:45.335Z,11.68
2024-02-03T05:44:12.195Z,17.33
2024-02-03T05:46:39.016Z,10.55
2024-02-03T05:49:06.069Z,11.13
2024-02-03T05:51:33.232Z,20.20
2024-02-03T05:54:00.119Z,16.42
2024-02-03T05:56:27.003Z,23.70
2024-02-03T05:59:08.015Z,24.90
2024-02-03T06:01:40.723Z,26.83
2024-02-03T06:04:09.544Z,26.08
2024-02-03T06:06:36.872Z,46.55
2024-02-03T06:09:04.582Z,35.88
2024-02-03T06:11:34.351Z,33.92
2024-02-03T06:14:01.077Z,25.90
2024-02-03T06:16:27.969Z,32.30
2024-02-03T06:18:54.914Z,45.00
2024-02-03T06:21:21.880Z,41.65
2024-02-03T06:23:48.684Z,36.58
2024-02-03T06:26:15.646Z,30.77
2024-02-03T06:28:42.551Z,24.40
2024-02-03T06:31:09.392Z,17.65
2024-02-03T06:33:36.398Z,17.00
2024-02-03T06:36:03.441Z,14.73
2024-02-03T06:38:30.284Z,15.48
2024-02-03T06:40:57.280Z,19.33
2024-02-03T06:43:26.922Z,18.35
2024-02-03T06:45:55.152Z,22.23
2024-02-03T06:48:22.258Z,15.57
2024-02-03T06:50:50.522Z,20.52
2024-02-03T06:53:17.389Z,23.48
2024-02-03T06:55:44.187Z,12.85
2024-02-03T06:58:11.122Z,25.55
2024-02-03T07:00:38.231Z,51.17
2024-02-03T07:03:05.530Z,10.45
2024-02-03T07:05:32.470Z,5.28
2024-02-03T07:07:59.766Z,8.20
2024-02-03T07:10:26.844Z,10.68
2024-02-03T07:12:53.875Z,14.55
2024-02-03T07:15:21.977Z,15.27
2024-02-03T07:17:49.802Z,23.02
2024-02-03T07:20:16.759Z,13.90
2024-02-03T07:22:43.602Z,31.42
2024-02-03T07:25:12.860Z,23.45
2024-02-03T07:27:39.768Z,18.35
2024-02-03T07:30:07.366Z,15.93
2024-02-03T07:32:34.384Z,14.57
2024-02-03T07:35:02.321Z,11.25
2024-02-03T07:37:29.371Z,10.60
2024-02-03T07:39:56.273Z,14.70
2024-02-03T07:42:23.225Z,13.50
2024-02-03T07:44:49.987Z,16.48
2024-02-03T07:47:16.882Z,15.48
2024-02-03T07:49:44.259Z,12.20
2024-02-03T07:52:11.282Z,15.18
2024-02-03T07:54:38.336Z,13.57
2024-02-03T07:57:05.439Z,16.50
2024-02-03T07:59:32.548Z,12.38
2024-02-03T08:01:59.706Z,10.85
2024-02-03T08:04:26.659Z,11.38
2024-02-03T08:06:53.644Z,11.57
2024-02-03T08:09:20.497Z,11.73
2024-02-03T08:11:47.499Z,15.85
2024-02-03T08:14:14.817Z,15.15
2024-02-03T08:16:41.778Z,12.77
2024-02-03T08:19:08.874Z,11.35
2024-02-03T08:21:38.203Z,12.02
2024-02-03T08:24:06.197Z,9.00
2024-02-03T08:26:33.236Z,9.65
2024-02-03T08:29:00.041Z,6.57
2024-02-03T08:31:28.359Z,8.73
2024-02-03T08:33:57.239Z,8.38
2024-02-03T08:36:24.425Z,9.85
2024-02-03T08:38:51.237Z,10.13
2024-02-03T08:41:18.161Z,13.07
2024-02-03T08:43:45.009Z,12.45
2024-02-03T08:46:11.824Z,11.23
2024-02-03T08:48:38.736Z,9.93
2024-02-03T08:51:05.926Z,11.77
2024-02-03T08:53:33.969Z,10.57
2024-02-03T08:56:00.956Z,8.68
2024-02-03T08:58:29.297Z,7.45
2024-02-03T09:00:57.308Z,9.90
2024-02-03T09:03:24.185Z,9.38
2024-02-03T09:05:51.019Z,11.23
2024-02-03T09:08:17.941Z,6.60
2024-02-03T09:10:44.814Z,6.93
2024-02-03T09:13:11.679Z,9.80
2024-02-03T09:15:38.586Z,5.88
2024-02-03T09:18:06.208Z,6.38
2024-02-03T09:20:33.424Z,4.43
2024-02-03T09:23:00.273Z,5.20
2024-02-03T09:25:27.324Z,3.97
2024-02-03T09:27:54.075Z,6.80
2024-02-03T09:30:21.826Z,8.55
2024-02-03T09:32:49.915Z,6.45
2024-02-03T09:35:16.909Z,6.28
2024-02-03T09:40:23.620Z,3.83
2024-02-03T09:42:50.809Z,3.53
2024-02-03T09:45:17.831Z,2.97
2024-02-03T09:47:44.978Z,2.25
2024-02-03T09:50:11.935Z,2.38
2024-02-03T09:52:38.776Z,3.67
2024-02-03T09:55:06.909Z,4.78
2024-02-03T09:57:34.152Z,8.02
2024-02-03T10:00:01.362Z,8.48
2024-02-03T10:02:28.878Z,7.55
2024-02-03T10:04:56.659Z,12.40
2024-02-03T10:07:23.587Z,5.07
2024-02-03T10:12:23.593Z,1.83
2024-02-03T10:15:04.086Z,2.70
2024-02-03T10:17:30.992Z,2.65
2024-02-03T10:19:58.190Z,5.75
2024-02-03T10:22:25.205Z,11.02
2024-02-03T10:24:51.984Z,3.53
2024-02-03T10:27:24.290Z,10.98
2024-02-03T10:29:55.716Z,14.30
2024-02-03T10:32:23.987Z,4.82
2024-02-03T10:34:54.862Z,4.55
2024-02-03T10:37:21.778Z,5.93
2024-02-03T10:39:48.878Z,1.52
2024-02-03T10:42:22.977Z,7.38
2024-02-03T10:44:50.996Z,7.03
2024-02-03T10:47:22.743Z,6.70
2024-02-03T10:49:50.326Z,3.22
2024-02-03T10:52:18.001Z,4.20
2024-02-03T10:54:46.311Z,7.22
2024-02-03T10:57:14.128Z,3.80
2024-02-03T10:59:41.471Z,4.78
2024-02-03T11:02:19.958Z,1.75
2024-02-03T11:04:51.335Z,2.28
2024-02-03T11:07:25.482Z,2.65
2024-02-03T11:09:55.312Z,7.90
2024-02-03T11:12:22.430Z,11.82
2024-02-03T11:14:49.718Z,6.10
2024-02-03T11:17:16.652Z,2.55
2024-02-03T11:19:46.083Z,11.18
2024-02-03T11:22:16.052Z,8.07
2024-02-03T11:24:44.255Z,4.88
2024-02-03T11:27:11.338Z,5.35
2024-02-03T11:29:40.992Z,6.78
2024-02-03T11:32:08.517Z,8.85
2024-02-03T11:34:36.994Z,8.95
2024-02-03T11:42:06.898Z,8.98
2024-02-03T11:44:55.494Z,11.57
2024-02-03T11:47:23.339Z,4.32
2024-02-03T11:49:54.021Z,8.45
2024-02-03T11:52:25.423Z,2.50
2024-02-03T11:54:53.229Z,3.30
2024-02-03T11:57:21.088Z,8.10
2024-02-03T11:59:47.875Z,4.57
2024-02-03T12:02:18.132Z,0.85
2024-02-03T12:04:45.469Z,3.85
2024-02-03T12:07:12.382Z,3.25
2024-02-03T12:09:39.352Z,8.63
2024-02-03T12:12:06.807Z,7.00
2024-02-03T12:14:33.596Z,5.65
2024-02-03T12:17:00.619Z,3.85
2024-02-03T12:19:29.041Z,1.92
2024-02-03T12:24:23.538Z,5.13
2024-02-03T12:26:50.405Z,3.83
2024-02-03T12:29:18.240Z,6.60
2024-02-03T12:31:45.033Z,15.52
2024-02-03T12:34:11.943Z,3.33
2024-02-03T12:36:38.943Z,6.75
2024-02-03T12:39:05.784Z,5.07
2024-02-03T12:41:32.747Z,2.13
2024-02-03T12:43:59.642Z,7.80
2024-02-03T12:46:27.311Z,2.30
2024-02-03T12:48:54.262Z,9.75
2024-02-03T12:51:21.293Z,7.65
2024-02-03T12:53:48.196Z,5.38
2024-02-03T12:56:15.960Z,11.73
2024-02-03T12:58:43.970Z,9.35
2024-02-03T13:01:14.612Z,2.03
2024-02-03T13:03:41.728Z,1.15
2024-02-03T13:06:08.707Z,3.00
2024-02-03T13:08:35.563Z,2.00
2024-02-03T13:11:03.110Z,4.15
2024-02-03T13:13:29.904Z,5.32
2024-02-03T13:15:56.825Z,2.60
2024-02-03T13:18:23.691Z,4.88
2024-02-03T13:20:50.548Z,7.90
2024-02-03T13:23:17.472Z,3.45
2024-02-03T13:25:44.389Z,12.05
2024-02-03T13:28:11.215Z,4.00
2024-02-03T13:30:38.139Z,4.35
2024-02-03T13:33:05.449Z,4.43
2024-02-03T13:35:32.436Z,3.88
2024-02-03T13:38:00.019Z,1.88
2024-02-03T13:40:27.031Z,5.70
2024-02-03T13:42:54.391Z,5.40
2024-02-03T13:45:21.543Z,5.32
2024-02-03T13:47:51.048Z,6.75
2024-02-03T13:50:19.783Z,3.90
2024-02-03T13:52:46.921Z,2.65
2024-02-03T13:55:14.189Z,2.80
2024-02-03T13:57:41.269Z,11.23
2024-02-03T14:00:09.096Z,9.95
2024-02-03T14:02:38.580Z,5.97
2024-02-03T14:05:06.265Z,0.85
2024-02-03T14:07:33.248Z,5.45
2024-02-03T14:10:03.681Z,4.72
2024-02-03T14:12:31.974Z,7.18
2024-02-03T14:14:59.039Z,3.47
2024-02-03T14:17:25.849Z,7.30
2024-02-03T14:19:52.813Z,8.52
2024-02-03T14:22:19.670Z,16.92
2024-02-03T14:24:46.584Z,6.63
2024-02-03T14:27:14.079Z,5.90
2024-02-03T14:29:41.280Z,3.45
2024-02-03T14:32:12.999Z,8.82
2024-02-03T14:34:40.108Z,6.85
2024-02-03T14:37:09.708Z,3.55
2024-02-03T14:39:36.490Z,9.32
2024-02-03T14:42:06.010Z,3.92
2024-02-03T14:44:35.669Z,5.38
2024-02-03T14:47:02.725Z,22.75
2024-02-03T14:49:29.787Z,22.70
2024-02-03T14:51:56.694Z,9.32
2024-02-03T14:54:23.623Z,8.55
2024-02-03T14:56:51.361Z,9.35
2024-02-03T14:59:18.218Z,10.00
2024-02-03T15:01:45.156Z,2.13
2024-02-03T15:04:12.079Z,10.20
2024-02-03T15:06:39.695Z,11.52
2024-02-03T15:09:09.327Z,24.50
2024-02-03T15:11:36.899Z,4.22
2024-02-03T15:14:03.777Z,2.22
2024-02-03T15:16:30.894Z,2.25
2024-02-03T15:18:57.968Z,4.30
2024-02-03T15:21:25.009Z,17.50
2024-02-03T15:23:51.933Z,11.65
2024-02-03T15:26:18.727Z,26.30
2024-02-03T15:28:45.516Z,11.20
2024-02-03T15:31:12.322Z,4.65
2024-02-03T15:33:39.885Z,5.47
2024-02-03T15:36:07.579Z,22.95
2024-02-03T15:38:34.469Z,36.08
2024-02-03T15:41:01.413Z,14.40
2024-02-03T15:43:28.271Z,11.68
2024-02-03T15:45:55.136Z,28.15
2024-02-03T15:48:23.072Z,36.03
2024-02-03T15:50:49.976Z,21.02
2024-02-03T15:53:16.800Z,17.67
2024-02-03T15:55:43.672Z,21.23
2024-02-03T15:58:11.259Z,12.82
2024-02-03T16:00:38.398Z,13.88
2024-02-03T16:03:08.478Z,13.15
2024-02-03T16:05:35.522Z,18.65
2024-02-03T16:08:02.480Z,21.08
2024-02-03T16:10:29.397Z,14.85
2024-02-03T16:12:56.363Z,23.80
2024-02-03T16:15:23.509Z,18.95
2024-02-03T16:17:50.508Z,17.95
2024-02-03T16:20:17.601Z,6.30
2024-02-03T16:22:45.653Z,4.18
2024-02-03T16:25:12.864Z,7.07
2024-02-03T16:27:42.783Z,9.63
2024-02-03T16:30:12.045Z,9.90
2024-02-03T16:32:39.058Z,130.25
2024-02-03T16:35:06.770Z,42.58
2024-02-03T16:37:34.024Z,50.75
2024-02-03T16:40:00.967Z,28.23
2024-02-03T16:42:27.863Z,40.35
2024-02-03T16:44:54.636Z,53.08
2024-02-03T16:47:21.486Z,40.03
2024-02-03T16:49:48.412Z,37.28
2024-02-03T16:52:16.098Z,73.68
2024-02-03T16:54:42.987Z,34.38
2024-02-03T16:57:11.106Z,26.63
2024-02-03T16:59:38.714Z,30.35
2024-02-03T17:02:06.094Z,36.40
2024-02-03T17:04:33.188Z,40.92
2024-02-03T17:07:01.584Z,26.10
2024-02-03T17:09:28.461Z,45.97
2024-02-03T17:11:55.340Z,27.60
2024-02-03T17:14:22.239Z,42.55
2024-02-03T17:16:49.206Z,42.17
2024-02-03T17:19:16.665Z,44.17
2024-02-03T17:21:44.091Z,32.08
2024-02-03T17:24:11.191Z,10.75
2024-02-03T17:26:38.110Z,46.97
2024-02-03T17:29:04.969Z,29.50
2024-02-03T17:31:32.069Z,58.63
2024-02-03T17:33:59.086Z,14.65
2024-02-03T17:36:25.957Z,16.73
2024-02-03T17:38:54.252Z,17.92
2024-02-03T17:41:21.121Z,15.35
2024-02-03T17:43:47.904Z,23.30
2024-02-03T17:46:17.999Z,5.63
2024-02-03T17:48:45.180Z,22.10
2024-02-03T17:51:13.082Z,13.77
2024-02-03T17:53:40.746Z,10.80
2024-02-03T17:56:08.214Z,3.95
2024-02-03T17:58:35.298Z,6.53
2024-02-03T18:01:02.369Z,9.73
2024-02-03T18:03:29.448Z,10.55
2024-02-03T18:05:56.555Z,11.23
2024-02-03T18:08:23.379Z,13.25
2024-02-03T18:10:51.661Z,12.52
2024-02-03T18:13:18.634Z,20.13
2024-02-03T18:15:45.434Z,21.98
2024-02-03T18:18:12.483Z,21.98
2024-02-03T18:20:39.404Z,11.85
2024-02-03T18:23:06.181Z,5.28
2024-02-03T18:25:32.985Z,3.78
2024-02-03T18:28:00.111Z,13.40
2024-02-03T18:30:27.281Z,33.30
2024-02-03T18:32:54.445Z,41.58
2024-02-03T18:35:21.332Z,45.83
2024-02-03T18:37:48.178Z,43.58
2024-02-03T18:40:15.159Z,52.05
2024-02-03T18:42:44.325Z,52.88
2024-02-03T18:45:13.214Z,51.15
2024-02-03T18:47:40.927Z,49.05
2024-02-03T18:50:08.791Z,61.05
2024-02-03T18:52:35.674Z,68.15
2024-02-03T18:55:02.674Z,69.97
2024-02-03T18:57:30.628Z,55.45
2024-02-03T18:59:57.445Z,47.33
2024-02-03T19:02:24.394Z,35.42
2024-02-03T19:04:51.376Z,21.70
2024-02-03T19:07:18.284Z,46.08
2024-02-03T19:09:45.315Z,49.60
2024-02-03T19:12:12.167Z,41.13
2024-02-03T19:14:39.063Z,42.03
2024-02-03T19:17:06.161Z,44.08
2024-02-03T19:19:33.259Z,44.42
2024-02-03T19:22:00.464Z,48.28
2024-02-03T19:24:27.538Z,43.92
2024-02-03T19:26:54.353Z,36.50
2024-02-03T19:29:21.202Z,30.25
2024-02-03T19:31:47.988Z,26.02
2024-02-03T19:34:15.151Z,40.90
2024-02-03T19:36:42.226Z,42.30
2024-02-03T19:39:10.385Z,38.65
2024-02-03T19:41:38.603Z,40.67
2024-02-03T19:44:05.647Z,33.65
2024-02-03T19:46:32.669Z,29.02
2024-02-03T19:48:59.795Z,41.22
2024-02-03T19:51:26.954Z,39.80
2024-02-03T19:53:53.758Z,50.45
2024-02-03T19:56:20.565Z,38.60
2024-02-03T19:58:47.476Z,43.45
2024-02-03T20:01:15.720Z,37.28
2024-02-03T20:03:49.416Z,46.00
2024-02-03T20:06:17.498Z,48.97
2024-02-03T20:08:44.655Z,50.50
2024-02-03T20:11:14.149Z,81.63
2024-02-03T20:13:41.635Z,55.17
2024-02-03T20:16:09.293Z,57.40
2024-02-03T20:18:36.445Z,49.85
2024-02-03T20:21:03.354Z,57.10
2024-02-03T20:23:30.387Z,159.07
2024-02-03T20:25:57.275Z,69.47
2024-02-03T20:28:25.210Z,73.85
2024-02-03T20:30:53.351Z,84.03
2024-02-03T20:33:20.975Z,50.08
2024-02-03T20:35:48.343Z,55.35
2024-02-03T20:38:15.258Z,63.35
2024-02-03T20:40:44.704Z,62.13
2024-02-03T20:43:15.022Z,62.38
2024-02-03T20:45:43.946Z,57.15
2024-02-03T20:48:11.110Z,39.65
2024-02-03T20:50:38.136Z,55.05
2024-02-03T20:53:06.011Z,60.45
2024-02-03T20:55:32.960Z,84.70
2024-02-03T20:58:00.687Z,75.93
2024-02-03T21:00:27.870Z,58.05
2024-02-03T21:02:54.943Z,57.17
2024-02-03T21:05:22.081Z,50.83
2024-02-03T21:07:51.761Z,30.52
2024-02-03T21:10:18.832Z,30.25
2024-02-03T21:12:45.973Z,38.22
2024-02-03T21:15:12.885Z,49.42
2024-02-03T21:17:39.778Z,43.63
2024-02-03T21:20:07.389Z,52.42
2024-02-03T21:22:34.801Z,59.25
2024-02-03T21:25:01.707Z,39.38
2024-02-03T21:27:28.572Z,41.83
2024-02-03T21:29:55.420Z,47.67
2024-02-03T21:32:22.276Z,45.05
2024-02-03T21:34:49.134Z,46.33
2024-02-03T21:37:16.987Z,54.53
2024-02-03T21:39:45.000Z,55.75
2024-02-03T21:42:12.303Z,38.97
2024-02-03T21:44:39.683Z,45.88
2024-02-03T21:47:06.723Z,57.30
2024-02-03T21:49:33.673Z,82.53
2024-02-03T21:52:00.657Z,86.13
2024-02-03T21:54:27.644Z,95.57
2024-02-03T21:56:54.462Z,60.03
2024-02-03T21:59:21.254Z,73.18
2024-02-03T22:01:48.218Z,60.55
2024-02-03T22:04:16.424Z,51.17
2024-02-03T22:06:43.590Z,48.50
2024-02-03T22:09:17.337Z,51.88
2024-02-03T22:11:47.693Z,40.45
2024-02-03T22:14:14.678Z,25.40
2024-02-03T22:16:42.511Z,23.83
2024-02-03T22:19:09.670Z,44.90
2024-02-03T22:21:36.714Z,53.13
2024-02-03T22:24:03.775Z,31.27
2024-02-03T22:26:30.610Z,37.42
2024-02-03T22:28:57.434Z,26.90
2024-02-03T22:31:24.286Z,25.63
2024-02-03T22:33:51.197Z,26.15
2024-02-03T22:36:18.072Z,43.10
2024-02-03T22:38:44.906Z,24.88
2024-02-03T22:41:11.792Z,31.83
2024-02-03T22:43:38.646Z,28.80
2024-02-03T22:46:05.669Z,30.92
2024-02-03T22:48:32.730Z,31.65
2024-02-03T22:50:59.652Z,23.00
2024-02-03T22:53:26.473Z,23.45
2024-02-03T22:55:55.385Z,18.00
2024-02-03T22:58:22.421Z,14.77
2024-02-03T23:00:51.189Z,29.38
2024-02-03T23:03:18.416Z,26.33
2024-02-03T23:05:45.502Z,21.02
2024-02-03T23:08:12.503Z,25.85
2024-02-03T23:10:39.306Z,17.63
2024-02-03T23:13:06.304Z,21.45
2024-02-03T23:15:34.004Z,19.50
2024-02-03T23:18:01.589Z,19.85
2024-02-03T23:20:28.574Z,17.05
2024-02-03T23:22:55.405Z,16.30
2024-02-03T23:25:23.417Z,20.10
2024-02-03T23:27:50.282Z,21.70
2024-02-03T23:30:17.267Z,24.00
2024-02-03T23:32:44.446Z,64.47
2024-02-03T23:35:11.397Z,41.17
2024-02-03T23:37:38.223Z,128.57
2024-02-03T23:40:10.999Z,49.90
2024-02-03T23:42:37.940Z,46.60
2024-02-03T23:45:05.374Z,57.63
2024-02-03T23:47:32.264Z,36.92
2024-02-03T23:49:59.332Z,59.75
2024-02-03T23:52:26.703Z,52.05
2024-02-03T23:54:53.749Z,41.05
2024-02-03T23:57:20.779Z,23.48
2024-02-03T23:59:47.582Z,23.70
